Terminal Aerodrome Forecast
Issued by NWS

Home | Current Version | Previous Version | Text Only | Print | Product List | Glossary On
Versions: 1 2 3 4 5 6 7 8 9 10 11 12 13 14 15 16 17 18 19 20 21 22 23 24 25 26
000
FTUS41 KBUF 261729
TAFIAG
TAF
KIAG 261729Z 2618/2718 22008KT P6SM BKN140
     FM262300 22005KT P6SM BKN110
     FM270400 20005KT P6SM VCSH OVC060
     FM271100 24006KT P6SM BKN060
     FM271600 VRB03KT P6SM BKN060=

USA.gov is the U.S. government's official web portal to all federal, state and local government web resources and services.